Terminal Aerodrome Forecast
Issued by NWS

Current Version | Previous Version | Text Only | Print | Product List | Glossary Off
Versions: 1 2 3 4 5 6 7 8 9 10 11 12 13 14 15 16 17 18 19 20 21 22 23 24 25 26 27 28 29 30 31

000
FTUS41 KPBZ 260500
TAFMGW
TAF
KMGW 260525Z 2606/2706 05003KT P6SM BKN150
     FM261200 36005KT 3SM -SN OVC035
      TEMPO 2612/2613 6SM -SNRA
     FM261300 01005KT 1SM -SN BR OVC010
     FM262200 VRB03KT 5SM BR OVC010=

USA.gov is the U.S. government's official web portal to all federal, state and local government web resources and services.